Time;durP1;ratioP1;P1;durP2;ratioP2;P2;SDS_P1;SDS_P2;PMS_P1;PMS_P2;Temp;Humidity;BMP_temperature;BMP_pressure;BME280_temperature;BME280_humidity;BME280_pressure;Samples;Min_cycle;Max_cycle;Signal;HPM_P1;HPM_P2
2022/02/06 01:33:57;;;;;;;;;;;;;;;5.85;100.00;100846.72;2566573;30;137028;-40
2022/02/06 01:36:40;;;;;;;;;;;;;;;5.88;100.00;100849.06;2567497;30;138544;-40
2022/02/06 01:39:18;;;;;;;;;;;;;;;5.86;100.00;100849.25;2567945;30;137399;-40
2022/02/06 01:41:47;;;;;;;;;;;;;;;5.83;100.00;100840.63;2568003;30;138739;-40
2022/02/06 02:03:55;;;;;;;;;;;;;;;5.61;100.00;100803.41;2568772;30;139012;-39
2022/02/06 02:09:28;;;;;;;;;;;;;;;5.63;100.00;100786.13;2567807;30;138285;-39
2022/02/06 02:12:22;;;;;;;;;;;;;;;5.63;100.00;100780.72;2568053;30;137078;-39
2022/02/06 02:17:56;;;;;;;;;;;;;;;5.60;100.00;100757.56;2566546;30;136896;-39
2022/02/06 02:23:47;;;;;;;;;;;;;;;5.60;100.00;100761.13;2566896;30;137024;-39
2022/02/06 02:45:14;;;;;;;;;;;;;;;5.56;100.00;100713.75;2568803;30;138119;-39
2022/02/06 02:47:47;;;;;;;;;;;;;;;5.57;100.00;100707.34;2567298;30;138282;-40
2022/02/06 02:50:19;;;;;;;;;;;;;;;5.58;100.00;100698.22;2567726;30;137017;-40
2022/02/06 02:53:12;;;;;;;;;;;;;;;5.59;100.00;100699.88;2567574;30;138914;-40
2022/02/06 02:59:06;;;;;;;;;;;;;;;5.59;100.00;100691.78;2569005;30;137057;-39
2022/02/06 03:03:47;;;;;;;;;;;;;;;5.56;100.00;100672.34;2568835;30;138859;-40
2022/02/06 03:06:15;;;;;;;;;;;;;;;5.57;100.00;100677.59;2570197;30;136835;-40
2022/02/06 03:08:45;;;;;;;;;;;;;;;5.61;100.00;100654.53;2565998;30;138270;-40
2022/02/06 03:11:13;;;;;;;;;;;;;;;5.59;100.00;100662.00;2568698;30;136896;-40
2022/02/06 03:16:32;;;;;;;;;;;;;;;5.58;100.00;100651.34;2569722;30;137078;-39
2022/02/06 03:19:12;;;;;;;;;;;;;;;5.57;100.00;100646.97;2569624;30;138264;-39
2022/02/06 03:21:42;;;;;;;;;;;;;;;5.57;100.00;100638.84;2569075;30;137233;-39
2022/02/06 03:24:21;;;;;;;;;;;;;;;5.57;100.00;100642.41;2569749;30;138403;-39
2022/02/06 03:26:51;;;;;;;;;;;;;;;5.55;100.00;100641.72;2568896;30;137030;-40
2022/02/06 03:29:20;;;;;;;;;;;;;;;5.54;100.00;100631.09;2569035;30;137458;-40
2022/02/06 03:31:49;;;;;;;;;;;;;;;5.53;100.00;100630.22;2568538;30;137187;-40
2022/02/06 03:34:17;;;;;;;;;;;;;;;5.56;100.00;100629.88;2568296;30;138320;-40
2022/02/06 03:36:45;;;;;;;;;;;;;;;5.56;100.00;100647.97;2569302;30;137060;-40
2022/02/06 03:39:15;;;;;;;;;;;;;;;5.55;100.00;100633.59;2567851;30;139096;-40
2022/02/06 03:44:35;;;;;;;;;;;;;;;5.57;100.00;100623.44;2565917;30;138201;-39
2022/02/06 03:47:21;;;;;;;;;;;;;;;5.55;100.00;100621.94;2568490;30;137046;-39
2022/02/06 03:50:03;;;;;;;;;;;;;;;5.60;100.00;100627.63;2569336;30;138326;-39
2022/02/06 03:52:37;;;;;;;;;;;;;;;5.57;100.00;100628.00;2569101;30;137094;-40
2022/02/06 03:55:05;;;;;;;;;;;;;;;5.57;100.00;100614.47;2568570;30;138278;-39
2022/02/06 03:57:33;;;;;;;;;;;;;;;5.54;100.00;100590.50;2567805;30;137759;-40
2022/02/06 04:00:00;;;;;;;;;;;;;;;5.55;100.00;100611.13;2566534;30;137973;-40
2022/02/06 04:02:31;;;;;;;;;;;;;;;5.53;100.00;100605.88;2568976;30;136916;-40
2022/02/06 04:04:59;;;;;;;;;;;;;;;5.50;100.00;100598.13;2567064;30;139686;-40
2022/02/06 04:07:26;;;;;;;;;;;;;;;5.53;100.00;100592.34;2568692;30;137998;-40
2022/02/06 04:09:56;;;;;;;;;;;;;;;5.54;100.00;100593.19;2568719;30;137606;-39
2022/02/06 04:12:26;;;;;;;;;;;;;;;5.54;100.00;100599.44;2568386;30;137003;-39
2022/02/06 04:15:00;;;;;;;;;;;;;;;5.52;100.00;100587.13;2567523;30;138911;-40
2022/02/06 04:17:29;;;;;;;;;;;;;;;5.53;100.00;100600.47;2569014;30;137251;-40
2022/02/06 04:19:57;;;;;;;;;;;;;;;5.52;100.00;100595.25;2568861;30;139383;-39
2022/02/06 04:22:25;;;;;;;;;;;;;;;5.50;100.00;100591.91;2568516;30;137671;-40
2022/02/06 04:24:53;;;;;;;;;;;;;;;5.47;100.00;100577.72;2568863;30;137351;-40
2022/02/06 04:27:21;;;;;;;;;;;;;;;5.42;100.00;100573.88;2568220;30;137744;-40
2022/02/06 04:29:51;;;;;;;;;;;;;;;5.42;100.00;100582.81;2568744;30;138514;-40
2022/02/06 04:32:21;;;;;;;;;;;;;;;5.40;100.00;100560.50;2568528;30;137213;-40
2022/02/06 04:34:51;;;;;;;;;;;;;;;5.41;100.00;100558.66;2568737;30;137455;-40
2022/02/06 04:40:09;;;;;;;;;;;;;;;5.38;100.00;100546.34;2567011;30;137189;-40
2022/02/06 04:46:46;;;;;;;;;;;;;;;5.42;100.00;100525.16;2568257;30;138269;-40
2022/02/06 04:49:08;;;;;;;;;;;;;;;5.40;100.00;100528.03;2566344;30;137204;-40
2022/02/06 04:51:52;;;;;;;;;;;;;;;5.40;100.00;100524.50;2568647;30;139697;-40
2022/02/06 05:16:36;;;;;;;;;;;;;;;5.52;100.00;100482.41;2569120;30;137177;-40
2022/02/06 05:34:19;;;;;;;;;;;;;;;5.59;100.00;100461.72;2567279;30;138991;-40
2022/02/06 05:36:48;;;;;;;;;;;;;;;5.61;100.00;100454.25;2568535;30;137122;-40
2022/02/06 05:39:15;;;;;;;;;;;;;;;5.66;100.00;100434.72;2567547;30;138423;-40
2022/02/06 05:41:43;;;;;;;;;;;;;;;5.67;100.00;100430.16;2567186;30;137066;-40
2022/02/06 05:44:11;;;;;;;;;;;;;;;5.67;100.00;100436.38;2568756;30;138279;-40
2022/02/06 05:46:38;;;;;;;;;;;;;;;5.65;100.00;100432.22;2568911;30;137343;-40
2022/02/06 05:49:09;;;;;;;;;;;;;;;5.70;100.00;100430.63;2568517;30;138428;-40
2022/02/06 05:51:37;;;;;;;;;;;;;;;5.69;100.00;100423.50;2568853;30;137233;-40
2022/02/06 05:54:05;;;;;;;;;;;;;;;5.69;100.00;100430.78;2568934;30;138531;-40
2022/02/06 05:56:33;;;;;;;;;;;;;;;5.70;100.00;100419.78;2568019;30;136604;-40
2022/02/06 05:59:01;;;;;;;;;;;;;;;5.72;100.00;100422.28;2566558;30;138128;-40
2022/02/06 06:01:30;;;;;;;;;;;;;;;5.72;100.00;100406.91;2568279;30;137943;-40
2022/02/06 06:03:57;;;;;;;;;;;;;;;5.69;100.00;100411.84;2568409;30;138295;-40
2022/02/06 06:06:25;;;;;;;;;;;;;;;5.69;100.00;100401.03;2567119;30;138023;-40
2022/02/06 06:08:53;;;;;;;;;;;;;;;5.69;100.00;100404.56;2569407;30;138266;-40
2022/02/06 06:11:21;;;;;;;;;;;;;;;5.72;100.00;100396.06;2566706;30;138032;-40
2022/02/06 06:13:49;;;;;;;;;;;;;;;5.76;100.00;100396.53;2565878;30;138449;-39
2022/02/06 06:16:16;;;;;;;;;;;;;;;5.76;100.00;100400.06;2568117;30;137330;-40
2022/02/06 06:18:44;;;;;;;;;;;;;;;5.75;100.00;100393.00;2568262;30;138265;-40
2022/02/06 06:21:12;;;;;;;;;;;;;;;5.75;100.00;100393.00;2568485;30;137007;-40
2022/02/06 06:23:43;;;;;;;;;;;;;;;5.78;100.00;100388.22;2568597;30;139349;-40
2022/02/06 06:26:15;;;;;;;;;;;;;;;5.75;100.00;100392.13;2568303;30;137927;-40
2022/02/06 06:28:43;;;;;;;;;;;;;;;5.74;100.00;100380.47;2567420;30;138335;-40
2022/02/06 06:31:11;;;;;;;;;;;;;;;5.78;100.00;100383.63;2568713;30;137160;-40
2022/02/06 06:33:39;;;;;;;;;;;;;;;5.78;100.00;100375.50;2567897;30;137279;-40
2022/02/06 06:36:07;;;;;;;;;;;;;;;5.76;100.00;100377.56;2568569;30;137230;-40
2022/02/06 06:38:36;;;;;;;;;;;;;;;5.76;100.00;100381.13;2568491;30;137519;-40
2022/02/06 06:41:04;;;;;;;;;;;;;;;5.80;100.00;100368.03;2567286;30;137368;-40
2022/02/06 06:43:32;;;;;;;;;;;;;;;5.79;100.00;100350.09;2568776;30;138161;-40
2022/02/06 06:45:59;;;;;;;;;;;;;;;5.76;100.00;100370.31;2568508;30;137375;-40
2022/02/06 06:48:27;;;;;;;;;;;;;;;5.83;100.00;100364.09;2567159;30;138424;-39
2022/02/06 06:50:55;;;;;;;;;;;;;;;5.82;100.00;100360.53;2568719;30;136898;-40
2022/02/06 06:53:23;;;;;;;;;;;;;;;5.83;100.00;100358.69;2567679;30;139000;-40
2022/02/06 06:56:01;;;;;;;;;;;;;;;5.85;100.00;100321.44;2568317;30;137906;-39
2022/02/06 06:58:36;;;;;;;;;;;;;;;5.86;100.00;100315.84;2568080;30;138355;-39
2022/02/06 07:03:32;;;;;;;;;;;;;;;5.87;100.00;100327.50;2567481;30;138406;-40
2022/02/06 07:06:00;;;;;;;;;;;;;;;5.93;100.00;100323.19;2568669;30;137104;-40
2022/02/06 07:08:28;;;;;;;;;;;;;;;5.93;100.00;100339.41;2567660;30;137129;-39
2022/02/06 07:10:56;;;;;;;;;;;;;;;5.92;100.00;100330.44;2569012;30;136806;-40
2022/02/06 07:13:23;;;;;;;;;;;;;;;5.94;100.00;100331.09;2566318;30;138690;-40
2022/02/06 07:15:52;;;;;;;;;;;;;;;5.94;100.00;100324.84;2567484;30;137215;-40
2022/02/06 07:18:21;;;;;;;;;;;;;;;5.95;100.00;100334.66;2568237;30;137633;-40
2022/02/06 07:20:49;;;;;;;;;;;;;;;5.95;100.00;100313.00;2569219;30;136963;-39
2022/02/06 07:23:17;;;;;;;;;;;;;;;5.97;100.00;100322.59;2568309;30;138376;-40
2022/02/06 07:25:49;;;;;;;;;;;;;;;5.96;100.00;100314.66;2566746;30;137489;-40
2022/02/06 07:28:19;;;;;;;;;;;;;;;5.95;100.00;100311.09;2565075;30;137875;-40
2022/02/06 07:30:49;;;;;;;;;;;;;;;5.94;100.00;100300.47;2567455;30;137985;-40
2022/02/06 07:33:20;;;;;;;;;;;;;;;5.93;100.00;100304.22;2571135;30;139090;-38
2022/02/06 07:35:48;;;;;;;;;;;;;;;5.93;100.00;100293.38;2566797;30;137149;-38
2022/02/06 07:38:16;;;;;;;;;;;;;;;5.96;100.00;100295.72;2568658;30;137170;-38
2022/02/06 07:40:44;;;;;;;;;;;;;;;5.96;100.00;100288.41;2567775;30;137260;-38
2022/02/06 07:43:12;;;;;;;;;;;;;;;5.96;100.00;100288.41;2566348;30;138501;-38
2022/02/06 07:45:42;;;;;;;;;;;;;;;5.96;100.00;100276.75;2567466;30;138855;-38
2022/02/06 07:48:12;;;;;;;;;;;;;;;5.93;100.00;100288.81;2568511;30;139387;-38
2022/02/06 07:50:40;;;;;;;;;;;;;;;5.95;100.00;100277.78;2570222;30;137212;-38
2022/02/06 07:53:07;;;;;;;;;;;;;;;5.96;100.00;100253.19;2565965;30;138564;-38
2022/02/06 07:55:36;;;;;;;;;;;;;;;5.95;100.00;100253.41;2569088;30;137117;-38
2022/02/06 07:58:04;;;;;;;;;;;;;;;5.93;100.00;100250.88;2565613;30;137712;-38
2022/02/06 08:00:32;;;;;;;;;;;;;;;5.98;100.00;100247.59;2569133;30;138994;-38
2022/02/06 08:03:00;;;;;;;;;;;;;;;5.96;100.00;100233.44;2567346;30;137138;-38
2022/02/06 08:05:29;;;;;;;;;;;;;;;5.93;100.00;100220.28;2568224;30;137022;-38
2022/02/06 08:07:58;;;;;;;;;;;;;;;5.97;100.00;100213.44;2569106;30;139156;-38
2022/02/06 08:10:27;;;;;;;;;;;;;;;5.97;100.00;100199.91;2569697;30;137289;-38
2022/02/06 08:13:05;;;;;;;;;;;;;;;5.97;100.00;100192.63;2570084;30;138266;-38
2022/02/06 08:15:33;;;;;;;;;;;;;;;6.00;100.00;100185.97;2568594;30;138497;-38
2022/02/06 08:18:01;;;;;;;;;;;;;;;6.01;100.00;100182.25;2569394;30;138448;-38
2022/02/06 08:20:29;;;;;;;;;;;;;;;6.01;100.00;100180.38;2569316;30;137422;-37
2022/02/06 08:22:57;;;;;;;;;;;;;;;6.02;100.00;100148.72;2566581;30;138204;-38
2022/02/06 08:25:24;;;;;;;;;;;;;;;6.04;100.00;100166.44;2569038;30;137680;-38
2022/02/06 08:27:52;;;;;;;;;;;;;;;6.06;100.00;100158.09;2569890;30;138239;-38
2022/02/06 08:30:20;;;;;;;;;;;;;;;6.07;100.00;100158.97;2567568;30;137304;-38
2022/02/06 08:32:48;;;;;;;;;;;;;;;6.11;100.00;100152.09;2567941;30;137296;-38
2022/02/06 08:35:16;;;;;;;;;;;;;;;6.11;100.00;100155.66;2567398;30;137235;-38
2022/02/06 08:37:44;;;;;;;;;;;;;;;6.13;100.00;100150.03;2568337;30;138210;-38
2022/02/06 08:40:16;;;;;;;;;;;;;;;6.14;100.00;100147.13;2568077;30;137276;-38
2022/02/06 08:42:45;;;;;;;;;;;;;;;6.18;100.00;100150.25;2568010;30;139154;-38
2022/02/06 08:45:13;;;;;;;;;;;;;;;6.20;100.00;100137.34;2568656;30;137369;-38
2022/02/06 08:47:46;;;;;;;;;;;;;;;6.21;100.00;100120.06;2568805;30;137305;-38
2022/02/06 08:50:14;;;;;;;;;;;;;;;6.21;100.00;100125.47;2567016;30;137820;-38
2022/02/06 08:52:42;;;;;;;;;;;;;;;6.22;100.00;100115.50;2568354;30;138510;-38
2022/02/06 08:55:11;;;;;;;;;;;;;;;6.26;100.00;100109.47;2568301;30;137922;-37
2022/02/06 08:57:49;;;;;;;;;;;;;;;6.30;100.00;100099.06;2567950;30;138510;-38
2022/02/06 09:00:17;;;;;;;;;;;;;;;6.32;100.00;100097.81;2565698;30;136999;-37
2022/02/06 09:02:47;;;;;;;;;;;;;;;6.36;100.00;100106.38;2566834;30;137610;-38
2022/02/06 09:05:15;;;;;;;;;;;;;;;6.39;100.00;100092.44;2566729;30;138392;-38
2022/02/06 09:07:44;;;;;;;;;;;;;;;6.40;100.00;100096.81;2569331;30;138891;-38
2022/02/06 09:10:14;;;;;;;;;;;;;;;6.46;100.00;100098.72;2568456;30;137109;-37
2022/02/06 09:12:48;;;;;;;;;;;;;;;6.50;100.00;100082.03;2565860;30;139163;-38
2022/02/06 09:15:17;;;;;;;;;;;;;;;6.46;100.00;100074.31;2568369;30;137713;-37
2022/02/06 09:17:45;;;;;;;;;;;;;;;6.47;100.00;100076.00;2567956;30;138444;-38
2022/02/06 09:20:13;;;;;;;;;;;;;;;6.48;100.00;100061.41;2568475;30;137273;-38
2022/02/06 09:22:43;;;;;;;;;;;;;;;6.48;100.00;100080.38;2567940;30;138311;-38
2022/02/06 09:25:12;;;;;;;;;;;;;;;6.50;100.00;100066.63;2567425;30;137242;-38
2022/02/06 09:27:40;;;;;;;;;;;;;;;6.50;100.00;100049.53;2568226;30;137376;-38
2022/02/06 09:30:09;;;;;;;;;;;;;;;6.45;100.00;100048.25;2569206;30;137136;-38
2022/02/06 09:37:35;;;;;;;;;;;;;;;6.40;100.00;100029.09;2570067;30;137525;-38
2022/02/06 09:40:04;;;;;;;;;;;;;;;6.38;100.00;100025.75;2568965;30;137115;-38
2022/02/06 09:42:33;;;;;;;;;;;;;;;6.41;100.00;100016.34;2567253;30;138444;-38
2022/02/06 09:45:01;;;;;;;;;;;;;;;6.37;100.00;100018.66;2567544;30;136923;-38
2022/02/06 09:47:30;;;;;;;;;;;;;;;6.36;100.00;99994.47;2568932;30;138326;-38
2022/02/06 09:49:59;;;;;;;;;;;;;;;6.35;100.00;99996.31;2568536;30;137156;-38
2022/02/06 09:52:28;;;;;;;;;;;;;;;6.32;100.00;99988.59;2567367;30;137360;-38
2022/02/06 09:55:04;;;;;;;;;;;;;;;6.31;100.00;99997.78;2569144;30;137879;-38
2022/02/06 09:57:41;;;;;;;;;;;;;;;6.27;100.00;99989.25;2569007;30;136762;-38
2022/02/06 10:00:09;;;;;;;;;;;;;;;6.28;100.00;99995.47;2568591;30;137301;-38
2022/02/06 10:02:38;;;;;;;;;;;;;;;6.28;100.00;99987.34;2568189;30;137118;-38
2022/02/06 10:05:07;;;;;;;;;;;;;;;6.30;100.00;99971.72;2568700;30;137255;-38
2022/02/06 10:07:41;;;;;;;;;;;;;;;6.30;100.00;99979.84;2568471;30;138527;-38
2022/02/06 10:10:10;;;;;;;;;;;;;;;6.28;100.00;99982.78;2568136;30;137253;-38
2022/02/06 10:12:39;;;;;;;;;;;;;;;6.27;100.00;99975.69;2566934;30;137166;-38
2022/02/06 10:15:10;;;;;;;;;;;;;;;6.26;100.00;99967.75;2568664;30;137344;-38
2022/02/06 10:17:37;;;;;;;;;;;;;;;6.24;100.00;99950.88;2568487;30;138577;-38
2022/02/06 10:20:13;;;;;;;;;;;;;;;6.22;100.00;99951.06;2565840;30;137995;-38
2022/02/06 10:23:05;;;;;;;;;;;;;;;6.22;100.00;99931.28;2568469;30;137970;-37
2022/02/06 10:25:31;;;;;;;;;;;;;;;6.21;100.00;99929.63;2568518;30;137064;-38
2022/02/06 10:30:51;;;;;;;;;;;;;;;6.22;100.00;99912.34;2567639;30;138265;-38
2022/02/06 10:33:23;;;;;;;;;;;;;;;6.21;100.00;99894.41;2567703;30;138120;-38
2022/02/06 10:35:55;;;;;;;;;;;;;;;6.18;100.00;99887.53;2567705;30;137690;-38
2022/02/06 10:38:25;;;;;;;;;;;;;;;6.21;100.00;99880.88;2567192;30;139143;-38
2022/02/06 10:41:08;;;;;;;;;;;;;;;6.16;100.00;99860.66;2568709;30;137158;-38
2022/02/06 10:43:37;;;;;;;;;;;;;;;6.19;100.00;99843.13;2567629;30;138001;-38
2022/02/06 10:46:13;;;;;;;;;;;;;;;6.21;100.00;99849.19;2567503;30;137506;-38
2022/02/06 10:48:44;;;;;;;;;;;;;;;6.17;100.00;99840.66;2567697;30;139221;-38
2022/02/06 10:51:30;;;;;;;;;;;;;;;6.15;100.00;99831.06;2568300;30;136958;-38
2022/02/06 10:54:01;;;;;;;;;;;;;;;6.16;100.00;99830.00;2567328;30;139200;-38
2022/02/06 10:56:29;;;;;;;;;;;;;;;6.15;100.00;99815.66;2567146;30;137067;-38
2022/02/06 10:58:58;;;;;;;;;;;;;;;6.18;100.00;99792.72;2566422;30;136951;-38
2022/02/06 11:01:26;;;;;;;;;;;;;;;6.17;100.00;99778.38;2567189;30;136988;-38
2022/02/06 11:04:13;;;;;;;;;;;;;;;6.15;100.00;99787.72;2567425;30;137455;-38
2022/02/06 11:06:47;;;;;;;;;;;;;;;6.17;100.00;99785.63;2566805;30;136895;-38
2022/02/06 11:09:21;;;;;;;;;;;;;;;6.16;100.00;99778.56;2568848;30;137620;-38
2022/02/06 11:11:49;;;;;;;;;;;;;;;6.14;100.00;99764.41;2568811;30;137277;-38
2022/02/06 11:14:24;;;;;;;;;;;;;;;6.12;100.00;99756.50;2567872;30;138305;-38
2022/02/06 11:16:51;;;;;;;;;;;;;;;6.14;100.00;99745.44;2567929;30;137418;-38
2022/02/06 11:19:22;;;;;;;;;;;;;;;6.13;100.00;99739.19;2568297;30;139200;-38
2022/02/06 11:22:09;;;;;;;;;;;;;;;6.13;100.00;99733.78;2569260;30;136768;-38
2022/02/06 11:24:37;;;;;;;;;;;;;;;6.13;100.00;99722.94;2568197;30;138401;-38
2022/02/06 11:27:06;;;;;;;;;;;;;;;6.14;100.00;99705.66;2568280;30;137275;-38
2022/02/06 11:29:34;;;;;;;;;;;;;;;6.10;100.00;99704.41;2568568;30;138262;-38
2022/02/06 11:32:02;;;;;;;;;;;;;;;6.08;100.00;99681.28;2565977;30;138241;-38
2022/02/06 11:34:30;;;;;;;;;;;;;;;6.07;100.00;99683.16;2568584;30;138143;-38
2022/02/06 11:45:37;;;;;;;;;;;;;;;6.10;100.00;99625.88;2568251;30;138292;-38
2022/02/06 11:48:06;;;;;;;;;;;;;;;6.13;100.00;99614.63;2569440;30;137264;-38
2022/02/06 11:50:36;;;;;;;;;;;;;;;6.11;100.00;99613.16;2568492;30;139245;-38
2022/02/06 11:53:06;;;;;;;;;;;;;;;6.12;100.00;99587.75;2568757;30;137035;-38
2022/02/06 11:55:36;;;;;;;;;;;;;;;6.09;100.00;99572.75;2566992;30;137890;-38
2022/02/06 11:58:24;;;;;;;;;;;;;;;6.11;100.00;99570.69;2569126;30;137176;-38
2022/02/06 12:01:06;;;;;;;;;;;;;;;6.13;100.00;99578.56;2569397;30;138767;-38
2022/02/06 12:03:53;;;;;;;;;;;;;;;6.15;100.00;99562.94;2569274;30;137064;-38
2022/02/06 12:06:24;;;;;;;;;;;;;;;6.17;100.00;99550.84;2569216;30;139369;-38
2022/02/06 12:08:57;;;;;;;;;;;;;;;6.15;100.00;99533.16;2568788;30;138864;-38
2022/02/06 12:11:30;;;;;;;;;;;;;;;6.14;100.00;99534.19;2569068;30;138217;-38
2022/02/06 12:14:07;;;;;;;;;;;;;;;6.19;100.00;99535.22;2567751;30;137522;-38
2022/02/06 12:16:42;;;;;;;;;;;;;;;6.21;100.00;99521.44;2568470;30;137235;-38
2022/02/06 12:19:26;;;;;;;;;;;;;;;6.22;100.00;99516.88;2566018;30;137347;-38
2022/02/06 12:21:55;;;;;;;;;;;;;;;6.27;100.00;99503.50;2568823;30;137350;-38
2022/02/06 12:24:49;;;;;;;;;;;;;;;6.30;100.00;99492.25;2567882;30;136782;-38
2022/02/06 12:27:19;;;;;;;;;;;;;;;6.36;100.00;99487.84;2568040;30;139079;-38
2022/02/06 12:29:50;;;;;;;;;;;;;;;6.41;100.00;99471.75;2568292;30;138302;-38
2022/02/06 12:32:40;;;;;;;;;;;;;;;6.46;100.00;99486.31;2566784;30;137336;-38
2022/02/06 12:37:56;;;;;;;;;;;;;;;6.55;100.00;99475.19;2568441;30;139001;-38
2022/02/06 12:40:25;;;;;;;;;;;;;;;6.60;100.00;99469.94;2568885;30;136989;-38
2022/02/06 12:43:02;;;;;;;;;;;;;;;6.62;100.00;99457.84;2569405;30;137554;-38
2022/02/06 12:45:31;;;;;;;;;;;;;;;6.66;100.00;99463.69;2568939;30;137346;-38
2022/02/06 12:48:06;;;;;;;;;;;;;;;6.70;100.00;99462.19;2569541;30;138263;-38
2022/02/06 12:50:35;;;;;;;;;;;;;;;6.74;100.00;99471.53;2567777;30;137142;-38
2022/02/06 12:53:05;;;;;;;;;;;;;;;6.79;100.00;99484.44;2567876;30;137461;-38
2022/02/06 12:55:34;;;;;;;;;;;;;;;6.79;100.00;99480.88;2568874;30;137782;-38
2022/02/06 12:58:06;;;;;;;;;;;;;;;6.87;100.00;99481.44;2568202;30;138557;-38
2022/02/06 13:00:45;;;;;;;;;;;;;;;6.93;100.00;99485.16;2565878;30;136796;-38
2022/02/06 13:03:34;;;;;;;;;;;;;;;6.99;100.00;99515.97;2569499;30;138540;-36
2022/02/06 13:06:08;;;;;;;;;;;;;;;7.01;100.00;99513.84;2567274;30;138139;-38
2022/02/06 13:08:39;;;;;;;;;;;;;;;6.94;100.00;99568.16;2568926;30;139223;-38
2022/02/06 13:11:11;;;;;;;;;;;;;;;6.60;100.00;99590.03;2568292;30;137129;-38
2022/02/06 13:13:53;;;;;;;;;;;;;;;6.42;100.00;99609.72;2568610;30;137368;-38
2022/02/06 13:30:09;;;;;;;;;;;;;;;5.71;100.00;99668.16;2567885;30;138262;-38
2022/02/06 13:32:54;;;;;;;;;;;;;;;5.73;100.00;99687.75;2566683;30;137543;-39
2022/02/06 13:35:41;;;;;;;;;;;;;;;5.63;100.00;99646.75;2568242;30;137323;-40
2022/02/06 13:38:16;;;;;;;;;;;;;;;5.55;100.00;99656.72;2567430;30;137671;-40
2022/02/06 13:40:48;;;;;;;;;;;;;;;5.56;100.00;99665.69;2568012;30;138483;-40
2022/02/06 13:43:20;;;;;;;;;;;;;;;5.48;100.00;99682.94;2568546;30;136954;-40
2022/02/06 13:45:49;;;;;;;;;;;;;;;5.45;100.00;99672.53;2567226;30;138391;-40
2022/02/06 13:48:19;;;;;;;;;;;;;;;5.42;100.00;99675.66;2568477;30;137301;-40
2022/02/06 13:50:52;;;;;;;;;;;;;;;5.42;100.00;99676.47;2569172;30;138125;-40
2022/02/06 13:53:23;;;;;;;;;;;;;;;5.44;100.00;99665.47;2568801;30;137187;-41
2022/02/06 13:55:51;;;;;;;;;;;;;;;5.39;100.00;99665.25;2569009;30;138422;-40
2022/02/06 13:58:21;;;;;;;;;;;;;;;5.37;100.00;99667.34;2567207;30;137395;-40
2022/02/06 14:00:53;;;;;;;;;;;;;;;5.35;100.00;99675.66;2568158;30;138175;-40
2022/02/06 14:03:21;;;;;;;;;;;;;;;5.30;100.00;99683.53;2567044;30;136960;-40
2022/02/06 14:06:04;;;;;;;;;;;;;;;5.29;100.00;99680.00;2567282;30;138300;-40
2022/02/06 14:08:34;;;;;;;;;;;;;;;5.23;100.00;99688.13;2568231;30;137188;-40
2022/02/06 14:11:15;;;;;;;;;;;;;;;5.24;100.00;99687.91;2567624;30;137348;-40
2022/02/06 14:13:42;;;;;;;;;;;;;;;5.27;100.00;99687.47;2569245;30;137219;-40
2022/02/06 14:16:12;;;;;;;;;;;;;;;5.28;100.00;99685.63;2567688;30;139241;-40
2022/02/06 14:18:48;;;;;;;;;;;;;;;5.31;100.00;99688.75;2569121;30;137044;-40
2022/02/06 14:21:16;;;;;;;;;;;;;;;5.28;100.00;99697.25;2566273;30;138990;-40
2022/02/06 14:23:43;;;;;;;;;;;;;;;5.30;100.00;99695.22;2568614;30;137183;-40
2022/02/06 14:26:13;;;;;;;;;;;;;;;5.32;100.00;99703.94;2569197;30;138208;-40
2022/02/06 14:28:48;;;;;;;;;;;;;;;5.36;100.00;99700.84;2568164;30;136710;-40
2022/02/06 14:31:23;;;;;;;;;;;;;;;5.39;100.00;99708.53;2565476;30;138632;-40
2022/02/06 14:33:51;;;;;;;;;;;;;;;5.39;100.00;99705.81;2567734;30;137831;-40
2022/02/06 14:36:23;;;;;;;;;;;;;;;5.43;100.00;99712.50;2568387;30;139142;-40
2022/02/06 14:38:57;;;;;;;;;;;;;;;5.46;100.00;99720.19;2568118;30;137005;-40
2022/02/06 14:41:45;;;;;;;;;;;;;;;5.52;100.00;99727.47;2567091;30;137491;-40
2022/02/06 14:44:15;;;;;;;;;;;;;;;5.51;100.00;99723.09;2568806;30;137203;-40
2022/02/06 14:46:44;;;;;;;;;;;;;;;5.51;100.00;99723.09;2568012;30;138388;-40
2022/02/06 14:49:17;;;;;;;;;;;;;;;5.52;100.00;99732.06;2568201;30;137061;-40
2022/02/06 14:51:46;;;;;;;;;;;;;;;5.53;100.00;99736.44;2569013;30;139298;-40
2022/02/06 14:54:20;;;;;;;;;;;;;;;5.57;100.00;99743.09;2568329;30;137226;-40
2022/02/06 14:56:48;;;;;;;;;;;;;;;5.55;100.00;99758.72;2568598;30;139153;-40
2022/02/06 14:59:16;;;;;;;;;;;;;;;5.53;100.00;99741.84;2570119;30;137226;-40
2022/02/06 15:01:44;;;;;;;;;;;;;;;5.54;100.00;99748.94;2568809;30;138405;-40
2022/02/06 15:04:13;;;;;;;;;;;;;;;5.59;100.00;99747.28;2569822;30;137207;-40
2022/02/06 15:06:41;;;;;;;;;;;;;;;5.58;100.00;99744.78;2568874;30;137867;-40
2022/02/06 15:09:09;;;;;;;;;;;;;;;5.63;100.00;99744.16;2567681;30;137248;-40
2022/02/06 15:11:37;;;;;;;;;;;;;;;5.59;100.00;99739.16;2568364;30;139151;-40
2022/02/06 15:14:04;;;;;;;;;;;;;;;5.53;100.00;99729.13;2569347;30;137760;-39
2022/02/06 15:16:35;;;;;;;;;;;;;;;5.55;100.00;99740.59;2568882;30;137056;-40
2022/02/06 15:19:14;;;;;;;;;;;;;;;5.53;100.00;99736.44;2568112;30;137405;-40
2022/02/06 15:21:42;;;;;;;;;;;;;;;5.55;100.00;99743.28;2567297;30;138541;-40
2022/02/06 15:24:10;;;;;;;;;;;;;;;5.54;100.00;99744.34;2567232;30;136729;-40
2022/02/06 15:26:38;;;;;;;;;;;;;;;5.55;100.00;99740.59;2567476;30;137266;-40
2022/02/06 15:29:06;;;;;;;;;;;;;;;5.56;100.00;99736.84;2568807;30;137108;-40
2022/02/06 15:31:34;;;;;;;;;;;;;;;5.57;100.00;99738.53;2569495;30;138558;-40
2022/02/06 15:34:15;;;;;;;;;;;;;;;5.58;100.00;99720.41;2568008;30;137167;-40
2022/02/06 15:36:49;;;;;;;;;;;;;;;5.57;100.00;99716.88;2569248;30;138967;-40
2022/02/06 15:39:23;;;;;;;;;;;;;;;5.56;100.00;99715.19;2568504;30;137200;-40
2022/02/06 15:41:54;;;;;;;;;;;;;;;5.54;100.00;99719.97;2569664;30;138500;-40
2022/02/06 15:44:22;;;;;;;;;;;;;;;5.56;100.00;99722.50;2568890;30;138389;-40
2022/02/06 15:46:51;;;;;;;;;;;;;;;5.55;100.00;99715.41;2568292;30;138149;-40
2022/02/06 15:49:19;;;;;;;;;;;;;;;5.56;100.00;99733.31;2569423;30;137210;-40
2022/02/06 15:51:47;;;;;;;;;;;;;;;5.51;100.00;99739.34;2568667;30;136830;-40
2022/02/06 15:54:15;;;;;;;;;;;;;;;5.53;100.00;99718.31;2568824;30;137205;-40
2022/02/06 15:56:43;;;;;;;;;;;;;;;5.52;100.00;99722.06;2569070;30;138169;-40
2022/02/06 15:59:11;;;;;;;;;;;;;;;5.52;100.00;99705.84;2568335;30;138279;-40
2022/02/06 16:01:38;;;;;;;;;;;;;;;5.51;100.00;99714.16;2568978;30;137647;-40
2022/02/06 16:04:09;;;;;;;;;;;;;;;5.48;100.00;99712.69;2569001;30;137080;-40
2022/02/06 16:06:38;;;;;;;;;;;;;;;5.50;100.00;99716.03;2569618;30;138227;-40
2022/02/06 16:09:06;;;;;;;;;;;;;;;5.53;100.00;99712.09;2567850;30;138027;-40
2022/02/06 16:11:35;;;;;;;;;;;;;;;5.56;100.00;99704.38;2569058;30;137174;-40
2022/02/06 16:14:04;;;;;;;;;;;;;;;5.50;100.00;99699.78;2568342;30;137688;-40
2022/02/06 16:16:32;;;;;;;;;;;;;;;5.50;100.00;99713.31;2568846;30;138447;-40
2022/02/06 16:19:00;;;;;;;;;;;;;;;5.54;100.00;99714.56;2567216;30;137560;-40
2022/02/06 16:21:29;;;;;;;;;;;;;;;5.54;100.00;99711.88;2568723;30;138603;-40
2022/02/06 16:23:57;;;;;;;;;;;;;;;5.55;100.00;99713.53;2568170;30;136964;-40
2022/02/06 16:26:25;;;;;;;;;;;;;;;5.55;100.00;99707.31;2568862;30;138194;-40
2022/02/06 16:28:55;;;;;;;;;;;;;;;5.50;100.00;99701.69;2567269;30;137324;-40
2022/02/06 16:31:23;;;;;;;;;;;;;;;5.41;100.00;99695.63;2567025;30;137074;-40
2022/02/06 16:33:54;;;;;;;;;;;;;;;5.39;100.00;99695.00;2568906;30;138192;-40
2022/02/06 16:36:21;;;;;;;;;;;;;;;5.41;100.00;99701.03;2569540;30;137388;-40
2022/02/06 16:38:49;;;;;;;;;;;;;;;5.38;100.00;99698.75;2569284;30;137174;-40
2022/02/06 16:41:17;;;;;;;;;;;;;;;5.32;100.00;99711.22;2568490;30;137882;-40